Time;durP1;ratioP1;P1;durP2;ratioP2;P2;SDS_P1;SDS_P2;PMS_P1;PMS_P2;Temp;Humidity;BMP_temperature;BMP_pressure;BME280_temperature;BME280_humidity;BME280_pressure;Samples;Min_cycle;Max_cycle;Signal;HPM_P1;HPM_P2
2023/03/07 00:01:51;;;;;;;;;;;;;;;-0.62;77.11;95358.34;109164;1273;24324;-83
2023/03/07 00:04:21;;;;;;;;;;;;;;;-0.58;77.25;95356.61;109127;1272;22451;-83
2023/03/07 00:06:50;;;;;;;;;;;;;;;-0.57;77.13;95359.06;109126;1267;22518;-83
2023/03/07 00:09:19;;;;;;;;;;;;;;;-0.59;77.07;95359.62;109094;1267;23650;-83
2023/03/07 00:11:49;;;;;;;;;;;;;;;-0.61;77.09;95357.31;109040;1267;22495;-83
2023/03/07 00:14:18;;;;;;;;;;;;;;;-0.62;77.16;95353.91;109081;1274;23938;-83
2023/03/07 00:16:49;;;;;;;;;;;;;;;-0.61;77.38;95352.56;109128;1274;22548;-83
2023/03/07 00:19:19;;;;;;;;;;;;;;;-0.58;77.40;95348.69;109095;1267;22499;-84
2023/03/07 00:21:48;;;;;;;;;;;;;;;-0.58;77.27;95346.77;109060;1274;24289;-84
2023/03/07 00:24:18;;;;;;;;;;;;;;;-0.62;77.31;95342.35;109105;1274;28081;-84
2023/03/07 00:26:47;;;;;;;;;;;;;;;-0.63;77.16;95343.75;109094;1274;22599;-83
2023/03/07 00:29:16;;;;;;;;;;;;;;;-0.62;77.06;95344.75;109134;1274;23968;-83
2023/03/07 00:31:46;;;;;;;;;;;;;;;-0.60;77.16;95340.56;109134;1273;24209;-83
2023/03/07 00:34:15;;;;;;;;;;;;;;;-0.58;76.72;95333.76;109078;1274;22512;-84
2023/03/07 00:36:44;;;;;;;;;;;;;;;-0.54;77.05;95339.56;109007;1274;23777;-83
2023/03/07 00:39:14;;;;;;;;;;;;;;;-0.51;76.92;95334.17;109059;1274;22518;-83
2023/03/07 00:41:43;;;;;;;;;;;;;;;-0.47;76.58;95336.52;109069;1269;22496;-83
2023/03/07 00:44:13;;;;;;;;;;;;;;;-0.45;76.71;95335.19;109111;1274;22489;-83
2023/03/07 00:46:42;;;;;;;;;;;;;;;-0.49;76.58;95329.73;109073;1274;22481;-83
2023/03/07 00:49:13;;;;;;;;;;;;;;;-0.48;76.61;95330.26;109068;1274;22528;-83
2023/03/07 00:51:42;;;;;;;;;;;;;;;-0.46;76.47;95330.55;109047;1273;22540;-83
2023/03/07 00:54:12;;;;;;;;;;;;;;;-0.46;76.54;95325.98;109061;1274;28759;-83
2023/03/07 00:56:41;;;;;;;;;;;;;;;-0.44;76.04;95323.80;109060;1273;22493;-83
2023/03/07 00:59:10;;;;;;;;;;;;;;;-0.44;76.03;95316.67;109078;1274;22577;-83
2023/03/07 01:01:40;;;;;;;;;;;;;;;-0.44;76.07;95313.91;109128;1274;22582;-83
2023/03/07 01:04:10;;;;;;;;;;;;;;;-0.46;75.92;95311.80;109022;1270;22465;-83
2023/03/07 01:06:39;;;;;;;;;;;;;;;-0.51;75.68;95304.10;109066;1273;22483;-82
2023/03/07 01:09:08;;;;;;;;;;;;;;;-0.44;75.82;95304.95;109121;1270;22482;-83
2023/03/07 01:11:38;;;;;;;;;;;;;;;-0.44;75.76;95302.52;109051;1274;22582;-83
2023/03/07 01:14:07;;;;;;;;;;;;;;;-0.49;75.45;95306.98;109040;1267;22672;-83
2023/03/07 01:16:39;;;;;;;;;;;;;;;-0.51;75.84;95304.46;109090;1274;22419;-82
2023/03/07 01:19:11;;;;;;;;;;;;;;;-0.49;75.74;95300.01;109031;1267;22466;-83
2023/03/07 01:21:41;;;;;;;;;;;;;;;-0.47;75.96;95296.70;109117;1274;23272;-83
2023/03/07 01:24:12;;;;;;;;;;;;;;;-0.49;75.71;95293.19;109021;1267;25316;-84
2023/03/07 01:26:42;;;;;;;;;;;;;;;-0.46;75.66;95295.52;109066;1273;22511;-83
2023/03/07 01:29:12;;;;;;;;;;;;;;;-0.48;75.89;95292.94;109061;1274;22489;-83
2023/03/07 01:31:41;;;;;;;;;;;;;;;-0.51;75.91;95293.27;109143;1269;23717;-83
2023/03/07 01:34:10;;;;;;;;;;;;;;;-0.52;75.69;95288.05;109062;1274;22480;-83
2023/03/07 01:36:40;;;;;;;;;;;;;;;-0.53;75.88;95288.40;109078;1273;23276;-83
2023/03/07 01:39:12;;;;;;;;;;;;;;;-0.52;75.88;95281.27;109039;1267;22610;-83
2023/03/07 01:41:43;;;;;;;;;;;;;;;-0.53;75.80;95282.94;109074;1267;23655;-82
2023/03/07 01:44:16;;;;;;;;;;;;;;;-0.55;75.84;95278.19;109018;1274;86076;-82
2023/03/07 01:46:47;;;;;;;;;;;;;;;-0.56;75.92;95274.88;109089;1274;23224;-83
2023/03/07 01:49:22;;;;;;;;;;;;;;;-0.51;76.26;95276.14;109050;1274;22480;-82
2023/03/07 01:51:54;;;;;;;;;;;;;;;-0.52;76.38;95270.61;109068;1267;22496;-83
2023/03/07 01:54:24;;;;;;;;;;;;;;;-0.51;76.76;95269.67;109023;1274;23838;-83
2023/03/07 01:56:57;;;;;;;;;;;;;;;-0.50;76.46;95273.28;109100;1267;22488;-83
2023/03/07 01:59:29;;;;;;;;;;;;;;;-0.52;76.69;95275.61;109068;1274;22460;-83
2023/03/07 02:02:01;;;;;;;;;;;;;;;-0.52;77.21;95275.77;109125;1274;22578;-85
2023/03/07 02:04:32;;;;;;;;;;;;;;;-0.48;77.11;95268.57;109015;1270;59524;-84
2023/03/07 02:07:02;;;;;;;;;;;;;;;-0.43;77.23;95267.95;109047;1267;22629;-84
2023/03/07 02:09:33;;;;;;;;;;;;;;;-0.42;76.92;95263.38;109085;1270;22468;-84
2023/03/07 02:12:03;;;;;;;;;;;;;;;-0.42;76.95;95264.86;109072;1267;22439;-84
2023/03/07 02:14:33;;;;;;;;;;;;;;;-0.44;77.09;95270.33;109061;1267;22522;-84
2023/03/07 02:17:02;;;;;;;;;;;;;;;-0.45;76.82;95267.25;109077;1267;22513;-84
2023/03/07 02:19:38;;;;;;;;;;;;;;;-0.39;76.69;95263.13;109095;1267;22530;-84
2023/03/07 02:22:11;;;;;;;;;;;;;;;-0.35;76.51;95269.05;109096;1273;22496;-84
2023/03/07 02:24:43;;;;;;;;;;;;;;;-0.37;76.54;95272.20;109080;1273;22541;-84
2023/03/07 02:27:13;;;;;;;;;;;;;;;-0.41;76.58;95272.05;109074;1273;22492;-84
2023/03/07 02:29:43;;;;;;;;;;;;;;;-0.39;76.47;95272.86;109073;1273;22495;-83
2023/03/07 02:32:12;;;;;;;;;;;;;;;-0.39;76.70;95273.54;109060;1268;22600;-83
2023/03/07 02:34:41;;;;;;;;;;;;;;;-0.44;76.29;95272.87;109041;1270;24271;-84
2023/03/07 02:37:13;;;;;;;;;;;;;;;-0.49;76.70;95279.96;109078;1273;22502;-84
2023/03/07 02:39:43;;;;;;;;;;;;;;;-0.48;76.88;95280.02;109079;1267;22972;-84
2023/03/07 02:42:14;;;;;;;;;;;;;;;-0.44;76.56;95282.61;109037;1273;22496;-83
2023/03/07 02:44:45;;;;;;;;;;;;;;;-0.44;76.83;95279.23;109060;1267;25462;-83
2023/03/07 02:47:14;;;;;;;;;;;;;;;-0.45;77.01;95281.92;109070;1274;22494;-84
2023/03/07 02:49:44;;;;;;;;;;;;;;;-0.48;76.85;95278.45;109068;1274;22510;-83
2023/03/07 02:52:13;;;;;;;;;;;;;;;-0.52;77.15;95274.98;109057;1267;22486;-82
2023/03/07 02:54:42;;;;;;;;;;;;;;;-0.53;76.96;95277.68;109050;1270;23822;-83
2023/03/07 02:57:12;;;;;;;;;;;;;;;-0.54;77.22;95274.39;109062;1273;24215;-83
2023/03/07 02:59:41;;;;;;;;;;;;;;;-0.54;77.08;95275.38;109080;1274;22444;-83
2023/03/07 03:02:11;;;;;;;;;;;;;;;-0.57;76.92;95281.42;109054;1260;22482;-83
2023/03/07 03:04:41;;;;;;;;;;;;;;;-0.58;77.31;95284.89;109093;1274;23735;-84
2023/03/07 03:07:11;;;;;;;;;;;;;;;-0.56;77.08;95280.45;108976;1274;158160;-83
2023/03/07 03:09:40;;;;;;;;;;;;;;;-0.55;77.17;95284.52;109063;1274;23071;-84
2023/03/07 03:12:09;;;;;;;;;;;;;;;-0.53;77.29;95284.08;109061;1274;22511;-83
2023/03/07 03:14:39;;;;;;;;;;;;;;;-0.55;77.14;95278.55;109067;1274;22499;-83
2023/03/07 03:17:08;;;;;;;;;;;;;;;-0.55;77.34;95279.31;109057;1267;25392;-84
2023/03/07 03:19:38;;;;;;;;;;;;;;;-0.56;77.49;95285.30;109071;1273;22553;-83
2023/03/07 03:22:08;;;;;;;;;;;;;;;-0.54;77.19;95283.09;109049;1274;22544;-84
2023/03/07 03:24:39;;;;;;;;;;;;;;;-0.56;77.75;95286.29;109027;1274;22696;-83
2023/03/07 03:27:09;;;;;;;;;;;;;;;-0.57;77.40;95287.23;109042;1274;22497;-83
2023/03/07 03:29:38;;;;;;;;;;;;;;;-0.60;77.07;95281.85;109100;1273;22498;-84
2023/03/07 03:32:08;;;;;;;;;;;;;;;-0.63;77.21;95285.77;109114;1274;23268;-84
2023/03/07 03:34:37;;;;;;;;;;;;;;;-0.67;77.18;95280.36;109034;1270;43419;-84
2023/03/07 03:37:07;;;;;;;;;;;;;;;-0.72;77.16;95281.62;109083;1267;22517;-84
2023/03/07 03:39:36;;;;;;;;;;;;;;;-0.75;77.47;95278.05;109061;1274;23724;-83
2023/03/07 03:42:06;;;;;;;;;;;;;;;-0.72;77.78;95276.31;109069;1267;22496;-83
2023/03/07 03:44:35;;;;;;;;;;;;;;;-0.65;77.82;95270.80;109024;1267;22517;-83
2023/03/07 03:47:05;;;;;;;;;;;;;;;-0.59;78.11;95267.49;109008;1274;22492;-83
2023/03/07 03:49:35;;;;;;;;;;;;;;;-0.57;77.89;95265.52;109039;1267;24186;-83
2023/03/07 03:52:04;;;;;;;;;;;;;;;-0.57;77.60;95268.85;109048;1267;22512;-83
2023/03/07 03:54:34;;;;;;;;;;;;;;;-0.59;77.74;95269.30;109056;1274;22428;-83
2023/03/07 03:57:03;;;;;;;;;;;;;;;-0.57;77.91;95268.91;109061;1267;22485;-83
2023/03/07 03:59:33;;;;;;;;;;;;;;;-0.57;77.70;95269.02;109113;1270;22513;-83
2023/03/07 04:02:02;;;;;;;;;;;;;;;-0.56;77.70;95270.56;109025;1273;23070;-84
2023/03/07 04:04:31;;;;;;;;;;;;;;;-0.58;77.62;95273.02;109062;1273;51968;-83
2023/03/07 04:07:01;;;;;;;;;;;;;;;-0.59;77.80;95276.80;109088;1274;24372;-84
2023/03/07 04:09:30;;;;;;;;;;;;;;;-0.60;77.85;95278.66;109095;1274;22484;-83
2023/03/07 04:12:01;;;;;;;;;;;;;;;-0.58;77.80;95275.92;109038;1274;25274;-83
2023/03/07 04:14:30;;;;;;;;;;;;;;;-0.55;78.03;95279.68;109080;1274;22594;-84
2023/03/07 04:17:00;;;;;;;;;;;;;;;-0.54;78.23;95278.80;109054;1267;22468;-83
2023/03/07 04:19:29;;;;;;;;;;;;;;;-0.51;78.15;95280.87;109098;1267;25378;-84
2023/03/07 04:21:59;;;;;;;;;;;;;;;-0.45;78.15;95280.27;109098;1273;22544;-84
2023/03/07 04:24:29;;;;;;;;;;;;;;;-0.35;78.26;95279.73;109091;1273;22547;-84
2023/03/07 04:26:58;;;;;;;;;;;;;;;-0.28;78.24;95276.89;109054;1270;22497;-83
2023/03/07 04:29:29;;;;;;;;;;;;;;;-0.23;78.49;95276.84;109070;1267;22518;-83
2023/03/07 04:31:58;;;;;;;;;;;;;;;-0.20;78.06;95278.13;109093;1267;22524;-84
2023/03/07 04:34:28;;;;;;;;;;;;;;;-0.16;78.02;95276.04;109050;1274;25251;-83
2023/03/07 04:36:58;;;;;;;;;;;;;;;-0.11;77.85;95271.73;109081;1273;22564;-84
2023/03/07 04:39:27;;;;;;;;;;;;;;;-0.06;77.69;95275.73;109062;1266;22708;-84
2023/03/07 04:41:56;;;;;;;;;;;;;;;-0.08;77.96;95275.09;109078;1267;22510;-84
2023/03/07 04:44:26;;;;;;;;;;;;;;;-0.10;77.85;95272.84;109029;1273;24366;-84
2023/03/07 04:46:55;;;;;;;;;;;;;;;-0.08;77.92;95275.20;109077;1270;22530;-84
2023/03/07 04:49:25;;;;;;;;;;;;;;;-0.04;77.48;95273.93;109073;1273;22553;-83
2023/03/07 04:51:55;;;;;;;;;;;;;;;-0.02;77.79;95277.70;109050;1267;24257;-83
2023/03/07 04:54:24;;;;;;;;;;;;;;;-0.03;77.64;95278.73;109059;1273;29651;-84
2023/03/07 04:56:53;;;;;;;;;;;;;;;-0.02;77.32;95274.05;109057;1267;22537;-84
2023/03/07 04:59:23;;;;;;;;;;;;;;;-0.02;77.22;95276.50;109053;1273;22489;-83
2023/03/07 05:01:52;;;;;;;;;;;;;;;-0.02;77.31;95276.34;109087;1267;22513;-84
2023/03/07 05:04:21;;;;;;;;;;;;;;;-0.02;77.19;95272.90;109074;1267;22439;-84
2023/03/07 05:06:51;;;;;;;;;;;;;;;-0.03;77.24;95279.46;109096;1266;22488;-84
2023/03/07 05:09:20;;;;;;;;;;;;;;;-0.05;77.08;95277.09;109118;1273;23744;-84
2023/03/07 05:11:50;;;;;;;;;;;;;;;-0.08;77.11;95276.29;109073;1273;23813;-84
2023/03/07 05:14:19;;;;;;;;;;;;;;;-0.09;77.04;95277.89;109061;1273;23533;-84
2023/03/07 05:16:49;;;;;;;;;;;;;;;-0.07;77.19;95277.35;109084;1273;22506;-84
2023/03/07 05:19:18;;;;;;;;;;;;;;;-0.05;77.18;95276.68;109078;1267;24431;-84
2023/03/07 05:21:48;;;;;;;;;;;;;;;-0.04;77.32;95277.41;109085;1254;22514;-84
2023/03/07 05:24:19;;;;;;;;;;;;;;;-0.02;76.86;95280.05;109056;1273;24202;-84
2023/03/07 05:26:49;;;;;;;;;;;;;;;0.01;77.02;95283.79;109001;1273;22491;-84
2023/03/07 05:29:18;;;;;;;;;;;;;;;0.01;76.73;95280.77;109034;1267;22546;-84
2023/03/07 05:31:47;;;;;;;;;;;;;;;0.06;76.82;95281.29;109085;1273;23144;-84
2023/03/07 05:34:17;;;;;;;;;;;;;;;0.08;76.75;95281.10;109086;1273;25993;-84
2023/03/07 05:36:47;;;;;;;;;;;;;;;0.13;76.33;95280.42;109094;1270;23819;-84
2023/03/07 05:39:17;;;;;;;;;;;;;;;0.18;76.13;95280.48;109077;1267;22529;-84
2023/03/07 05:41:46;;;;;;;;;;;;;;;0.19;75.94;95279.55;109083;1265;23235;-84
2023/03/07 05:44:15;;;;;;;;;;;;;;;0.20;75.59;95279.61;109047;1273;25211;-84
2023/03/07 05:46:44;;;;;;;;;;;;;;;0.21;76.00;95282.70;109100;1267;22543;-84
2023/03/07 05:49:14;;;;;;;;;;;;;;;0.20;75.84;95284.77;109093;1270;22552;-84
2023/03/07 05:51:43;;;;;;;;;;;;;;;0.24;75.76;95283.91;109078;1273;22972;-84
2023/03/07 05:54:12;;;;;;;;;;;;;;;0.25;75.59;95283.46;109033;1273;22535;-83
2023/03/07 05:56:42;;;;;;;;;;;;;;;0.28;75.62;95285.23;109056;1274;24295;-84
2023/03/07 05:59:14;;;;;;;;;;;;;;;0.33;75.31;95287.57;109057;1273;22488;-84
2023/03/07 06:01:43;;;;;;;;;;;;;;;0.37;75.48;95288.89;109112;1267;22566;-84
2023/03/07 06:04:13;;;;;;;;;;;;;;;0.41;75.35;95288.98;109022;1273;22540;-84
2023/03/07 06:06:42;;;;;;;;;;;;;;;0.46;75.10;95288.69;109096;1273;22534;-84
2023/03/07 06:09:12;;;;;;;;;;;;;;;0.52;74.72;95285.34;109037;1267;23490;-84
2023/03/07 06:11:41;;;;;;;;;;;;;;;0.58;74.80;95292.44;109079;1273;22515;-84
2023/03/07 06:14:10;;;;;;;;;;;;;;;0.63;74.64;95286.00;109094;1254;22490;-84
2023/03/07 06:16:39;;;;;;;;;;;;;;;0.67;74.19;95283.80;109113;1273;25266;-83
2023/03/07 06:19:09;;;;;;;;;;;;;;;0.77;73.99;95285.66;109084;1273;22485;-84
2023/03/07 06:21:38;;;;;;;;;;;;;;;0.87;73.69;95285.75;109059;1273;22489;-83
2023/03/07 06:24:08;;;;;;;;;;;;;;;1.00;73.92;95283.12;109057;1273;24167;-84
2023/03/07 06:26:38;;;;;;;;;;;;;;;1.17;73.60;95275.92;109084;1273;22546;-84
2023/03/07 06:29:07;;;;;;;;;;;;;;;1.30;73.16;95279.98;109037;1266;22525;-84
2023/03/07 06:31:37;;;;;;;;;;;;;;;1.35;72.90;95280.42;109059;1266;22514;-83
2023/03/07 06:34:07;;;;;;;;;;;;;;;1.37;72.67;95279.34;109086;1266;22884;-84
2023/03/07 06:36:36;;;;;;;;;;;;;;;1.38;72.41;95285.09;109125;1273;22482;-83
2023/03/07 06:39:06;;;;;;;;;;;;;;;1.40;72.39;95291.89;109092;1274;22521;-84
2023/03/07 06:41:35;;;;;;;;;;;;;;;1.41;72.30;95287.67;109100;1273;22864;-83
2023/03/07 06:44:05;;;;;;;;;;;;;;;1.38;72.15;95290.67;109013;1273;24212;-83
2023/03/07 06:46:35;;;;;;;;;;;;;;;1.36;72.18;95288.83;109069;1273;22627;-84
2023/03/07 06:49:04;;;;;;;;;;;;;;;1.34;72.14;95285.95;109080;1267;24048;-84
2023/03/07 06:51:33;;;;;;;;;;;;;;;1.28;72.17;95288.29;109049;1266;22553;-83
2023/03/07 06:54:03;;;;;;;;;;;;;;;1.31;72.47;95293.98;109044;1269;22489;-83
2023/03/07 06:56:34;;;;;;;;;;;;;;;1.35;72.00;95288.41;109087;1266;22595;-82
2023/03/07 06:59:03;;;;;;;;;;;;;;;1.40;72.03;95293.52;109057;1273;22547;-83
2023/03/07 07:01:34;;;;;;;;;;;;;;;1.45;71.87;95293.86;109119;1273;22477;-83
2023/03/07 07:04:03;;;;;;;;;;;;;;;1.54;71.41;95283.30;109039;1269;28416;-84
2023/03/07 07:06:33;;;;;;;;;;;;;;;1.66;71.47;95286.23;109067;1269;22600;-83
2023/03/07 07:09:03;;;;;;;;;;;;;;;1.85;71.34;95287.21;109082;1270;22563;-83
2023/03/07 07:11:32;;;;;;;;;;;;;;;2.09;71.10;95287.45;109092;1270;22602;-83
2023/03/07 07:14:02;;;;;;;;;;;;;;;2.41;70.61;95283.20;109085;1273;23653;-84
2023/03/07 07:16:35;;;;;;;;;;;;;;;2.51;69.68;95282.73;109054;1267;22455;-83
2023/03/07 07:19:04;;;;;;;;;;;;;;;2.60;69.23;95285.43;109052;1273;24202;-83
2023/03/07 07:21:33;;;;;;;;;;;;;;;2.64;68.96;95284.53;109088;1273;25418;-83
2023/03/07 07:24:03;;;;;;;;;;;;;;;2.75;68.52;95279.21;109072;1273;24192;-83
2023/03/07 07:26:33;;;;;;;;;;;;;;;2.79;67.65;95277.11;109086;1267;22502;-83
2023/03/07 07:29:02;;;;;;;;;;;;;;;2.92;67.90;95273.20;109056;1273;25392;-83
2023/03/07 07:31:31;;;;;;;;;;;;;;;3.40;67.55;95272.04;109066;1267;22596;-83
2023/03/07 07:34:01;;;;;;;;;;;;;;;4.01;66.43;95274.77;109072;1273;22442;-83
2023/03/07 07:36:30;;;;;;;;;;;;;;;4.55;65.06;95262.58;109112;1273;22832;-83
2023/03/07 07:39:02;;;;;;;;;;;;;;;5.13;64.04;95272.11;109092;1273;22536;-84
2023/03/07 07:41:31;;;;;;;;;;;;;;;5.48;61.50;95256.76;109067;1266;23838;-83
2023/03/07 07:44:01;;;;;;;;;;;;;;;5.94;62.34;95263.86;109023;1273;22488;-83
2023/03/07 07:46:30;;;;;;;;;;;;;;;6.57;60.28;95260.98;109042;1266;22523;-84
2023/03/07 07:48:59;;;;;;;;;;;;;;;7.13;58.99;95272.14;109103;1273;22499;-84
2023/03/07 07:51:29;;;;;;;;;;;;;;;7.29;56.96;95267.64;109099;1266;25245;-84
2023/03/07 07:53:59;;;;;;;;;;;;;;;7.36;56.88;95262.23;109067;1273;53897;-84
2023/03/07 07:56:28;;;;;;;;;;;;;;;7.70;55.96;95263.23;109030;1270;24365;-84
2023/03/07 07:58:57;;;;;;;;;;;;;;;7.87;54.28;95255.38;109037;1273;22501;-85
2023/03/07 08:01:27;;;;;;;;;;;;;;;7.84;54.79;95257.54;109114;1273;22482;-82
2023/03/07 08:03:56;;;;;;;;;;;;;;;8.09;53.67;95255.82;109016;1262;22527;-81
2023/03/07 08:06:27;;;;;;;;;;;;;;;8.01;54.33;95251.38;109080;1273;22489;-81
2023/03/07 08:08:56;;;;;;;;;;;;;;;8.42;55.59;95244.65;109011;1273;22494;-82
2023/03/07 08:11:26;;;;;;;;;;;;;;;8.59;53.32;95248.67;109073;1273;24423;-81
2023/03/07 08:13:55;;;;;;;;;;;;;;;8.14;51.98;95249.02;109037;1273;25272;-84
2023/03/07 08:16:25;;;;;;;;;;;;;;;7.88;52.74;95253.92;109052;1273;22524;-84
2023/03/07 08:18:55;;;;;;;;;;;;;;;7.74;52.38;95249.88;109064;1273;22665;-84
2023/03/07 08:21:25;;;;;;;;;;;;;;;7.67;52.20;95255.70;109096;1273;22500;-84
2023/03/07 08:23:55;;;;;;;;;;;;;;;7.38;50.45;95246.77;109053;1273;23346;-84
2023/03/07 08:26:25;;;;;;;;;;;;;;;7.27;52.09;95260.27;109083;1269;22452;-84
2023/03/07 08:28:54;;;;;;;;;;;;;;;7.65;51.99;95259.86;109104;1266;24190;-84
2023/03/07 08:31:25;;;;;;;;;;;;;;;7.87;50.81;95254.80;109101;1273;23084;-83
2023/03/07 08:33:55;;;;;;;;;;;;;;;7.84;50.58;95259.39;109029;1267;22627;-84
2023/03/07 08:36:24;;;;;;;;;;;;;;;8.05;49.67;95250.06;109076;1273;22760;-83
2023/03/07 08:38:56;;;;;;;;;;;;;;;8.21;50.35;95251.58;109100;1273;24829;-83
2023/03/07 08:41:25;;;;;;;;;;;;;;;8.46;49.90;95246.90;109138;1263;22543;-84
2023/03/07 08:43:55;;;;;;;;;;;;;;;9.04;50.32;95250.49;109076;1269;52781;-83
2023/03/07 08:46:27;;;;;;;;;;;;;;;9.38;49.74;95250.17;109060;1267;22484;-84
2023/03/07 08:48:56;;;;;;;;;;;;;;;9.30;48.11;95245.35;109107;1273;22489;-83
2023/03/07 08:51:25;;;;;;;;;;;;;;;8.55;48.46;95243.95;109092;1273;22503;-83
2023/03/07 08:53:57;;;;;;;;;;;;;;;8.21;48.49;95243.92;109045;1273;22489;-84
2023/03/07 08:56:26;;;;;;;;;;;;;;;7.91;48.26;95248.65;109003;1273;22517;-83
2023/03/07 08:58:56;;;;;;;;;;;;;;;7.52;48.09;95241.88;109091;1273;22501;-83
2023/03/07 09:01:25;;;;;;;;;;;;;;;6.90;49.26;95245.98;109089;1270;22703;-83
2023/03/07 09:03:55;;;;;;;;;;;;;;;6.55;49.76;95246.06;109047;1269;25199;-83
2023/03/07 09:06:24;;;;;;;;;;;;;;;6.23;49.88;95247.19;109085;1270;23666;-83
2023/03/07 09:08:53;;;;;;;;;;;;;;;5.66;50.27;95244.46;109072;1268;22564;-83
2023/03/07 09:11:23;;;;;;;;;;;;;;;5.43;50.69;95244.73;109113;1273;25242;-83
2023/03/07 09:13:52;;;;;;;;;;;;;;;5.27;51.91;95247.50;109041;1266;22429;-83
2023/03/07 09:16:22;;;;;;;;;;;;;;;5.22;51.83;95243.46;109061;1268;23878;-83
2023/03/07 09:18:51;;;;;;;;;;;;;;;5.23;52.67;95244.45;109039;1273;25415;-83
2023/03/07 09:21:21;;;;;;;;;;;;;;;5.28;52.26;95240.40;109065;1273;24193;-83
2023/03/07 09:23:50;;;;;;;;;;;;;;;5.26;52.77;95240.48;109064;1273;22620;-83
2023/03/07 09:26:20;;;;;;;;;;;;;;;5.23;53.44;95242.46;109083;1270;22560;-83
2023/03/07 09:28:49;;;;;;;;;;;;;;;5.19;53.44;95243.75;109056;1273;22631;-83
2023/03/07 09:31:18;;;;;;;;;;;;;;;5.15;53.85;95244.88;109104;1270;25404;-83
2023/03/07 09:33:48;;;;;;;;;;;;;;;5.18;54.01;95244.34;109077;1273;22521;-84
2023/03/07 09:36:19;;;;;;;;;;;;;;;5.28;53.87;95240.09;109087;1273;23651;-84
2023/03/07 09:38:48;;;;;;;;;;;;;;;5.31;54.32;95233.90;109101;1272;22526;-83
2023/03/07 09:41:40;;;;;;;;;;;;;;;5.26;53.81;95236.42;109099;1273;22501;-83
2023/03/07 09:44:15;;;;;;;;;;;;;;;5.21;53.71;95234.06;108979;1273;22508;-83
2023/03/07 09:46:50;;;;;;;;;;;;;;;5.12;53.45;95231.20;109061;1268;22488;-83
2023/03/07 09:49:21;;;;;;;;;;;;;;;5.05;53.61;95224.02;109131;1273;25252;-83
2023/03/07 09:51:52;;;;;;;;;;;;;;;4.93;53.80;95223.08;109099;1273;22529;-83
2023/03/07 09:54:24;;;;;;;;;;;;;;;4.89;53.58;95215.77;109073;1270;22531;-83
2023/03/07 09:56:58;;;;;;;;;;;;;;;4.72;53.62;95213.73;109066;1273;25407;-83
2023/03/07 09:59:33;;;;;;;;;;;;;;;4.63;53.95;95218.73;109088;1269;24904;-83
2023/03/07 10:02:08;;;;;;;;;;;;;;;4.66;54.38;95212.00;109074;1273;22572;-83
2023/03/07 10:04:42;;;;;;;;;;;;;;;4.75;54.04;95204.77;109053;1269;23836;-83
2023/03/07 10:07:13;;;;;;;;;;;;;;;4.81;54.36;95204.38;109067;1273;22525;-83
2023/03/07 10:09:43;;;;;;;;;;;;;;;4.89;54.53;95201.58;109077;1273;22547;-83
2023/03/07 10:12:24;;;;;;;;;;;;;;;4.95;54.73;95198.38;109051;1273;24266;-83
2023/03/07 10:14:59;;;;;;;;;;;;;;;4.91;54.11;95201.88;109122;1267;24215;-83
2023/03/07 10:17:41;;;;;;;;;;;;;;;4.84;54.28;95194.90;109049;1273;25292;-83
2023/03/07 10:20:19;;;;;;;;;;;;;;;4.82;54.49;95193.30;109092;1273;22578;-83
2023/03/07 10:22:52;;;;;;;;;;;;;;;4.82;54.57;95190.23;109042;1273;56193;-83
2023/03/07 10:25:25;;;;;;;;;;;;;;;4.83;54.91;95196.23;109058;1273;23843;-82
2023/03/07 10:28:00;;;;;;;;;;;;;;;4.78;54.12;95199.16;109127;1273;23668;-83
2023/03/07 10:30:31;;;;;;;;;;;;;;;4.62;53.69;95190.45;109135;1266;22555;-84
2023/03/07 10:33:01;;;;;;;;;;;;;;;4.55;54.22;95194.57;109065;1270;45218;-83
2023/03/07 10:35:38;;;;;;;;;;;;;;;4.57;54.57;95187.67;109089;1273;23618;-83
2023/03/07 10:38:14;;;;;;;;;;;;;;;4.49;54.18;95192.88;109108;1271;23559;-84
2023/03/07 10:40:48;;;;;;;;;;;;;;;4.50;54.65;95188.36;109071;1273;22499;-83
2023/03/07 10:43:23;;;;;;;;;;;;;;;4.48;54.03;95189.40;109060;1274;43549;-83
2023/03/07 10:46:02;;;;;;;;;;;;;;;4.40;54.25;95182.50;109105;1273;22502;-83
2023/03/07 10:48:32;;;;;;;;;;;;;;;4.29;54.51;95187.92;109066;1273;25399;-83
2023/03/07 10:51:07;;;;;;;;;;;;;;;4.32;54.88;95177.20;109111;1273;22525;-84
2023/03/07 10:53:37;;;;;;;;;;;;;;;4.34;54.51;95177.17;109070;1259;24134;-83
2023/03/07 10:56:11;;;;;;;;;;;;;;;4.32;54.56;95172.99;109066;1270;22528;-83
2023/03/07 10:58:59;;;;;;;;;;;;;;;4.31;54.23;95176.63;109107;1270;23217;-83
2023/03/07 11:01:28;;;;;;;;;;;;;;;4.37;54.27;95164.69;109099;1273;22558;-83
2023/03/07 11:04:00;;;;;;;;;;;;;;;4.34;54.14;95168.68;109028;1268;58607;-84
2023/03/07 11:06:31;;;;;;;;;;;;;;;4.33;54.18;95163.19;109107;1274;23595;-83
2023/03/07 11:09:11;;;;;;;;;;;;;;;4.40;54.41;95154.85;109039;1270;23252;-83
2023/03/07 11:11:40;;;;;;;;;;;;;;;4.48;54.32;95149.95;109088;1267;22570;-83
2023/03/07 11:14:10;;;;;;;;;;;;;;;4.47;54.24;95148.05;109064;1269;46271;-82
2023/03/07 11:16:48;;;;;;;;;;;;;;;4.39;53.96;95143.20;109085;1273;22522;-83
2023/03/07 11:19:34;;;;;;;;;;;;;;;4.24;54.07;95145.27;109042;1274;24609;-83
2023/03/07 11:22:05;;;;;;;;;;;;;;;4.14;54.12;95134.57;109065;1270;23192;-83
2023/03/07 11:24:38;;;;;;;;;;;;;;;4.07;54.44;95139.75;109015;1269;64592;-83
2023/03/07 11:27:20;;;;;;;;;;;;;;;4.09;54.70;95135.35;109068;1269;22500;-85
2023/03/07 11:30:05;;;;;;;;;;;;;;;4.11;54.76;95141.84;109076;1271;22620;-82
2023/03/07 11:32:37;;;;;;;;;;;;;;;4.06;54.93;95137.20;109062;1263;33837;-83
2023/03/07 11:35:12;;;;;;;;;;;;;;;4.04;54.90;95124.26;109094;1269;22681;-82
2023/03/07 11:37:48;;;;;;;;;;;;;;;4.06;55.51;95117.84;109122;1273;22526;-83
2023/03/07 11:40:23;;;;;;;;;;;;;;;4.13;55.85;95127.23;109080;1273;22481;-83
2023/03/07 11:42:59;;;;;;;;;;;;;;;4.24;56.00;95117.93;109034;1266;64604;-82
2023/03/07 11:45:34;;;;;;;;;;;;;;;4.25;55.57;95117.04;109073;1273;22633;-82
2023/03/07 11:48:10;;;;;;;;;;;;;;;4.17;55.55;95099.77;109083;1273;22779;-83
2023/03/07 11:50:44;;;;;;;;;;;;;;;4.15;55.99;95111.33;109066;1273;22647;-82
2023/03/07 11:53:32;;;;;;;;;;;;;;;4.29;56.12;95104.40;109113;1269;28094;-83
2023/03/07 11:56:08;;;;;;;;;;;;;;;4.32;55.35;95094.83;109051;1270;22573;-82
2023/03/07 11:58:45;;;;;;;;;;;;;;;4.23;55.46;95104.07;109095;1273;23839;-83
2023/03/07 12:01:19;;;;;;;;;;;;;;;4.29;55.37;95091.45;109069;1273;24274;-83
2023/03/07 12:04:06;;;;;;;;;;;;;;;4.30;55.37;95098.84;109051;1273;31267;-82
2023/03/07 12:06:42;;;;;;;;;;;;;;;4.31;55.10;95085.71;109112;1273;22443;-83
2023/03/07 12:09:20;;;;;;;;;;;;;;;4.32;55.59;95088.95;109068;1273;22481;-82
2023/03/07 12:11:58;;;;;;;;;;;;;;;4.35;54.98;95082.63;109087;1273;24629;-82
2023/03/07 12:14:35;;;;;;;;;;;;;;;4.34;55.60;95091.39;109012;1273;58878;-83
2023/03/07 12:17:12;;;;;;;;;;;;;;;4.45;55.68;95094.66;109079;1273;22508;-83
2023/03/07 12:19:53;;;;;;;;;;;;;;;4.51;54.73;95094.77;109067;1274;23840;-82
2023/03/07 12:22:29;;;;;;;;;;;;;;;4.45;54.53;95086.27;109048;1269;24440;-83
2023/03/07 12:25:09;;;;;;;;;;;;;;;4.53;54.62;95088.56;109091;1273;22531;-82
2023/03/07 12:27:42;;;;;;;;;;;;;;;4.61;53.62;95083.23;109068;1274;22587;-83
2023/03/07 12:30:16;;;;;;;;;;;;;;;4.64;53.59;95067.55;109063;1270;22495;-82
2023/03/07 12:32:47;;;;;;;;;;;;;;;4.66;54.05;95068.07;109042;1266;43494;-82
2023/03/07 12:35:22;;;;;;;;;;;;;;;4.72;54.38;95074.23;109093;1273;22497;-82
2023/03/07 12:37:55;;;;;;;;;;;;;;;4.79;53.74;95075.34;109108;1273;23836;-82
2023/03/07 12:40:29;;;;;;;;;;;;;;;4.80;53.64;95066.98;109105;1270;22517;-82
2023/03/07 12:43:02;;;;;;;;;;;;;;;4.70;53.18;95071.80;109048;1272;35632;-82
2023/03/07 12:45:36;;;;;;;;;;;;;;;4.62;53.81;95067.25;109083;1272;22760;-82
2023/03/07 12:48:08;;;;;;;;;;;;;;;4.64;53.30;95053.52;109102;1270;22514;-82
2023/03/07 12:50:47;;;;;;;;;;;;;;;4.62;53.41;95060.89;109061;1273;22499;-82
2023/03/07 12:53:21;;;;;;;;;;;;;;;4.60;53.63;95053.73;109040;1273;50708;-82
2023/03/07 12:55:55;;;;;;;;;;;;;;;4.63;53.34;95063.61;109097;1273;22507;-81
2023/03/07 12:58:33;;;;;;;;;;;;;;;4.67;53.46;95063.55;109128;1273;22542;-82
2023/03/07 13:01:04;;;;;;;;;;;;;;;4.66;53.75;95059.73;109110;1273;24993;-82
2023/03/07 13:03:40;;;;;;;;;;;;;;;4.63;53.58;95063.36;109113;1266;22508;-82